sensor_id;sensor_type;location;lat;lon;timestamp;pressure;altitude;pressure_sealevel;temperature;humidity
15998;BME280;8103;51.340;12.326;2023-02-10T00:02:00;102047.72;;;0.17;73.04
15998;BME280;8103;51.340;12.326;2023-02-10T00:04:27;102047.72;;;0.17;73.20
15998;BME280;8103;51.340;12.326;2023-02-10T00:06:57;102055.47;;;0.19;72.83
15998;BME280;8103;51.340;12.326;2023-02-10T00:09:24;102049.09;;;0.21;72.82
15998;BME280;8103;51.340;12.326;2023-02-10T00:11:51;102052.41;;;0.23;72.61
15998;BME280;8103;51.340;12.326;2023-02-10T00:14:23;102054.34;;;0.21;72.69
15998;BME280;8103;51.340;12.326;2023-02-10T00:16:52;102058.66;;;0.22;72.20
15998;BME280;8103;51.340;12.326;2023-02-10T00:19:21;102054.06;;;0.24;72.11
15998;BME280;8103;51.340;12.326;2023-02-10T00:21:49;102055.06;;;0.23;72.04
15998;BME280;8103;51.340;12.326;2023-02-10T00:24:17;102050.75;;;0.22;72.42
15998;BME280;8103;51.340;12.326;2023-02-10T00:26:44;102052.41;;;0.23;72.23
15998;BME280;8103;51.340;12.326;2023-02-10T00:29:12;102053.53;;;0.30;71.73
15998;BME280;8103;51.340;12.326;2023-02-10T00:31:39;102068.09;;;0.34;71.62
15998;BME280;8103;51.340;12.326;2023-02-10T00:34:07;102057.97;;;0.39;71.91
15998;BME280;8103;51.340;12.326;2023-02-10T00:36:35;102061.28;;;0.41;71.10
15998;BME280;8103;51.340;12.326;2023-02-10T00:39:02;102063.78;;;0.43;70.99
15998;BME280;8103;51.340;12.326;2023-02-10T00:41:29;102069.34;;;0.49;71.02
15998;BME280;8103;51.340;12.326;2023-02-10T00:43:56;102062.94;;;0.52;70.73
15998;BME280;8103;51.340;12.326;2023-02-10T00:46:23;102069.34;;;0.59;71.05
15998;BME280;8103;51.340;12.326;2023-02-10T00:48:50;102064.03;;;0.68;70.71
15998;BME280;8103;51.340;12.326;2023-02-10T00:51:18;102072.06;;;0.76;70.11
15998;BME280;8103;51.340;12.326;2023-02-10T00:53:46;102071.19;;;0.85;70.05
15998;BME280;8103;51.340;12.326;2023-02-10T00:56:18;102068.69;;;0.93;69.40
15998;BME280;8103;51.340;12.326;2023-02-10T00:58:46;102076.03;;;0.99;69.53
15998;BME280;8103;51.340;12.326;2023-02-10T01:01:14;102069.75;;;1.10;69.14
15998;BME280;8103;51.340;12.326;2023-02-10T01:03:41;102070.53;;;1.20;68.98
15998;BME280;8103;51.340;12.326;2023-02-10T01:06:09;102073.28;;;1.28;68.52
15998;BME280;8103;51.340;12.326;2023-02-10T01:08:37;102070.31;;;1.40;68.42
15998;BME280;8103;51.340;12.326;2023-02-10T01:11:09;102072.06;;;1.49;67.97
15998;BME280;8103;51.340;12.326;2023-02-10T01:13:37;102071.50;;;1.55;67.50
15998;BME280;8103;51.340;12.326;2023-02-10T01:16:08;102059.19;;;1.64;66.98
15998;BME280;8103;51.340;12.326;2023-02-10T01:18:38;102066.69;;;1.68;66.64
15998;BME280;8103;51.340;12.326;2023-02-10T01:21:16;102066.09;;;1.74;66.26
15998;BME280;8103;51.340;12.326;2023-02-10T01:23:44;102068.75;;;1.74;66.15
15998;BME280;8103;51.340;12.326;2023-02-10T01:26:13;102074.69;;;1.76;66.12
15998;BME280;8103;51.340;12.326;2023-02-10T01:28:41;102071.09;;;1.77;66.22
15998;BME280;8103;51.340;12.326;2023-02-10T01:31:16;102070.16;;;1.86;66.12
15998;BME280;8103;51.340;12.326;2023-02-10T01:33:45;102069.56;;;1.92;65.98
15998;BME280;8103;51.340;12.326;2023-02-10T01:36:16;102063.97;;;1.95;65.59
15998;BME280;8103;51.340;12.326;2023-02-10T01:38:44;102069.41;;;1.94;65.38
15998;BME280;8103;51.340;12.326;2023-02-10T01:41:15;102071.09;;;1.95;65.32
15998;BME280;8103;51.340;12.326;2023-02-10T01:46:55;102078.09;;;2.04;65.59
15998;BME280;8103;51.340;12.326;2023-02-10T01:49:34;102080.31;;;2.08;64.95
15998;BME280;8103;51.340;12.326;2023-02-10T01:52:11;102077.97;;;2.05;65.67
15998;BME280;8103;51.340;12.326;2023-02-10T01:54:45;102075.41;;;2.13;65.46
15998;BME280;8103;51.340;12.326;2023-02-10T01:57:14;102077.75;;;2.16;64.89
15998;BME280;8103;51.340;12.326;2023-02-10T01:59:42;102075.63;;;2.20;64.77
15998;BME280;8103;51.340;12.326;2023-02-10T02:02:11;102074.97;;;2.18;64.94
15998;BME280;8103;51.340;12.326;2023-02-10T02:04:51;102064.88;;;2.21;65.07
15998;BME280;8103;51.340;12.326;2023-02-10T02:07:22;102066.28;;;2.26;65.10
15998;BME280;8103;51.340;12.326;2023-02-10T02:09:51;102062.47;;;2.28;65.18
15998;BME280;8103;51.340;12.326;2023-02-10T02:15:25;102063.47;;;2.27;64.60
15998;BME280;8103;51.340;12.326;2023-02-10T02:18:12;102064.59;;;2.24;65.41
15998;BME280;8103;51.340;12.326;2023-02-10T02:21:30;102073.50;;;2.23;65.07
15998;BME280;8103;51.340;12.326;2023-02-10T02:24:21;102076.00;;;2.25;64.94
15998;BME280;8103;51.340;12.326;2023-02-10T02:32:33;102071.91;;;2.13;68.32
15998;BME280;8103;51.340;12.326;2023-02-10T02:35:12;102070.81;;;2.15;68.36
15998;BME280;8103;51.340;12.326;2023-02-10T02:37:43;102077.75;;;2.16;68.91
15998;BME280;8103;51.340;12.326;2023-02-10T02:40:14;102077.06;;;2.14;69.09
15998;BME280;8103;51.340;12.326;2023-02-10T02:42:41;102081.00;;;2.10;69.01
15998;BME280;8103;51.340;12.326;2023-02-10T02:45:20;102078.81;;;2.06;69.43
15998;BME280;8103;51.340;12.326;2023-02-10T02:48:14;102075.31;;;2.05;69.69
15998;BME280;8103;51.340;12.326;2023-02-10T02:51:20;102068.75;;;2.09;69.42
15998;BME280;8103;51.340;12.326;2023-02-10T02:54:18;102074.72;;;2.11;68.95
15998;BME280;8103;51.340;12.326;2023-02-10T02:59:52;102062.19;;;2.13;69.77
15998;BME280;8103;51.340;12.326;2023-02-10T03:02:20;102064.97;;;2.12;69.62
15998;BME280;8103;51.340;12.326;2023-02-10T03:04:48;102080.91;;;2.20;69.93
15998;BME280;8103;51.340;12.326;2023-02-10T03:07:15;102075.84;;;2.27;69.13
15998;BME280;8103;51.340;12.326;2023-02-10T03:09:42;102080.84;;;2.30;69.17
15998;BME280;8103;51.340;12.326;2023-02-10T03:12:09;102081.22;;;2.35;69.10
15998;BME280;8103;51.340;12.326;2023-02-10T03:14:39;102083.19;;;2.33;69.33
15998;BME280;8103;51.340;12.326;2023-02-10T03:17:06;102078.06;;;2.31;68.96
15998;BME280;8103;51.340;12.326;2023-02-10T03:19:33;102088.63;;;2.31;68.93
15998;BME280;8103;51.340;12.326;2023-02-10T03:22:00;102093.47;;;2.36;68.46
15998;BME280;8103;51.340;12.326;2023-02-10T03:24:27;102096.78;;;2.38;68.88
15998;BME280;8103;51.340;12.326;2023-02-10T03:26:53;102104.56;;;2.39;68.33
15998;BME280;8103;51.340;12.326;2023-02-10T03:29:20;102103.75;;;2.39;68.51
15998;BME280;8103;51.340;12.326;2023-02-10T03:31:47;102104.09;;;2.44;68.52
15998;BME280;8103;51.340;12.326;2023-02-10T03:34:14;102106.16;;;2.50;67.58
15998;BME280;8103;51.340;12.326;2023-02-10T03:36:41;102102.84;;;2.48;67.86
15998;BME280;8103;51.340;12.326;2023-02-10T03:39:08;102099.50;;;2.46;67.89
15998;BME280;8103;51.340;12.326;2023-02-10T03:41:34;102101.69;;;2.50;67.80
15998;BME280;8103;51.340;12.326;2023-02-10T03:44:02;102109.78;;;2.49;67.56
15998;BME280;8103;51.340;12.326;2023-02-10T03:46:29;102116.22;;;2.46;67.17
15998;BME280;8103;51.340;12.326;2023-02-10T03:48:56;102118.72;;;2.48;68.20
15998;BME280;8103;51.340;12.326;2023-02-10T03:51:23;102114.03;;;2.42;68.17
15998;BME280;8103;51.340;12.326;2023-02-10T03:53:49;102129.91;;;2.42;67.87
15998;BME280;8103;51.340;12.326;2023-02-10T03:56:16;102133.53;;;2.41;68.38
15998;BME280;8103;51.340;12.326;2023-02-10T03:58:43;102133.53;;;2.41;68.18
15998;BME280;8103;51.340;12.326;2023-02-10T04:01:13;102134.38;;;2.41;68.15
15998;BME280;8103;51.340;12.326;2023-02-10T04:03:41;102147.44;;;2.43;68.74
15998;BME280;8103;51.340;12.326;2023-02-10T04:06:08;102141.41;;;2.50;68.43
15998;BME280;8103;51.340;12.326;2023-02-10T04:08:36;102150.19;;;2.51;68.52
15998;BME280;8103;51.340;12.326;2023-02-10T04:11:04;102149.88;;;2.54;68.46
15998;BME280;8103;51.340;12.326;2023-02-10T04:13:31;102154.47;;;2.52;68.17
15998;BME280;8103;51.340;12.326;2023-02-10T04:16:08;102155.47;;;2.51;68.31
15998;BME280;8103;51.340;12.326;2023-02-10T04:18:36;102154.34;;;2.53;68.73
15998;BME280;8103;51.340;12.326;2023-02-10T04:21:07;102160.47;;;2.54;68.63
15998;BME280;8103;51.340;12.326;2023-02-10T04:23:34;102152.13;;;2.49;69.67
15998;BME280;8103;51.340;12.326;2023-02-10T04:26:02;102149.09;;;2.44;69.86
15998;BME280;8103;51.340;12.326;2023-02-10T04:28:29;102149.09;;;2.44;70.04
15998;BME280;8103;51.340;12.326;2023-02-10T04:31:00;102160.53;;;2.44;69.70
15998;BME280;8103;51.340;12.326;2023-02-10T04:33:28;102156.22;;;2.43;69.99
15998;BME280;8103;51.340;12.326;2023-02-10T04:35:55;102158.34;;;2.40;70.44
15998;BME280;8103;51.340;12.326;2023-02-10T04:38:23;102150.78;;;2.45;70.55
15998;BME280;8103;51.340;12.326;2023-02-10T04:40:50;102153.28;;;2.46;70.28
15998;BME280;8103;51.340;12.326;2023-02-10T04:43:17;102153.94;;;2.48;70.66
15998;BME280;8103;51.340;12.326;2023-02-10T04:45:44;102159.38;;;2.47;71.10
15998;BME280;8103;51.340;12.326;2023-02-10T04:48:11;102151.91;;;2.42;71.64
15998;BME280;8103;51.340;12.326;2023-02-10T04:50:38;102157.72;;;2.46;71.90
15998;BME280;8103;51.340;12.326;2023-02-10T04:53:05;102159.09;;;2.50;71.29
15998;BME280;8103;51.340;12.326;2023-02-10T04:55:33;102153.50;;;2.53;71.43
15998;BME280;8103;51.340;12.326;2023-02-10T04:58:00;102154.47;;;2.52;72.04
15998;BME280;8103;51.340;12.326;2023-02-10T05:00:28;102161.72;;;2.50;71.90
15998;BME280;8103;51.340;12.326;2023-02-10T05:02:55;102157.72;;;2.46;72.27
15998;BME280;8103;51.340;12.326;2023-02-10T05:05:22;102161.06;;;2.48;71.96
15998;BME280;8103;51.340;12.326;2023-02-10T05:07:52;102163.41;;;2.51;72.26
15998;BME280;8103;51.340;12.326;2023-02-10T05:10:19;102167.47;;;2.45;72.46
15998;BME280;8103;51.340;12.326;2023-02-10T05:12:46;102167.47;;;2.45;72.87
15998;BME280;8103;51.340;12.326;2023-02-10T05:15:13;102173.22;;;2.41;73.84
15998;BME280;8103;51.340;12.326;2023-02-10T05:17:40;102170.97;;;2.46;73.40
15998;BME280;8103;51.340;12.326;2023-02-10T05:20:08;102170.97;;;2.46;73.22
15998;BME280;8103;51.340;12.326;2023-02-10T05:22:37;102171.97;;;2.45;73.80
15998;BME280;8103;51.340;12.326;2023-02-10T05:25:05;102175.25;;;2.47;74.11
15998;BME280;8103;51.340;12.326;2023-02-10T05:27:34;102187.25;;;2.51;73.70
15998;BME280;8103;51.340;12.326;2023-02-10T05:30:05;102177.91;;;2.47;74.27
15998;BME280;8103;51.340;12.326;2023-02-10T05:32:33;102182.25;;;2.48;73.97
15998;BME280;8103;51.340;12.326;2023-02-10T05:35:00;102178.59;;;2.49;74.00
15998;BME280;8103;51.340;12.326;2023-02-10T05:37:26;102186.00;;;2.45;74.47
15998;BME280;8103;51.340;12.326;2023-02-10T05:39:53;102194.72;;;2.55;74.21
15998;BME280;8103;51.340;12.326;2023-02-10T05:42:20;102200.84;;;2.56;74.59
15998;BME280;8103;51.340;12.326;2023-02-10T05:44:47;102201.38;;;2.59;74.32
15998;BME280;8103;51.340;12.326;2023-02-10T05:47:15;102203.56;;;2.64;74.21
15998;BME280;8103;51.340;12.326;2023-02-10T05:49:42;102206.06;;;2.65;74.05
15998;BME280;8103;51.340;12.326;2023-02-10T05:52:09;102212.19;;;2.66;74.05
15998;BME280;8103;51.340;12.326;2023-02-10T05:54:36;102213.56;;;2.70;74.23
15998;BME280;8103;51.340;12.326;2023-02-10T05:57:03;102215.66;;;2.66;74.76
15998;BME280;8103;51.340;12.326;2023-02-10T05:59:30;102203.78;;;2.70;74.06
15998;BME280;8103;51.340;12.326;2023-02-10T06:01:57;102208.94;;;2.72;74.25
15998;BME280;8103;51.340;12.326;2023-02-10T06:04:24;102212.28;;;2.74;74.43
15998;BME280;8103;51.340;12.326;2023-02-10T06:06:51;102214.63;;;2.77;73.91
15998;BME280;8103;51.340;12.326;2023-02-10T06:09:18;102210.66;;;2.81;74.35
15998;BME280;8103;51.340;12.326;2023-02-10T06:11:46;102216.28;;;2.78;74.17
15998;BME280;8103;51.340;12.326;2023-02-10T06:14:13;102217.41;;;2.75;74.67
15998;BME280;8103;51.340;12.326;2023-02-10T06:16:40;102213.91;;;2.75;75.23
15998;BME280;8103;51.340;12.326;2023-02-10T06:19:07;102213.13;;;2.74;74.98
15998;BME280;8103;51.340;12.326;2023-02-10T06:21:34;102217.91;;;2.79;75.22
15998;BME280;8103;51.340;12.326;2023-02-10T06:24:03;102213.47;;;2.79;74.92
15998;BME280;8103;51.340;12.326;2023-02-10T06:26:30;102218.91;;;2.78;75.91
15998;BME280;8103;51.340;12.326;2023-02-10T06:28:57;102213.91;;;2.75;76.18
15998;BME280;8103;51.340;12.326;2023-02-10T06:31:27;102218.25;;;2.76;76.06
15998;BME280;8103;51.340;12.326;2023-02-10T06:33:54;102226.84;;;2.78;76.51
15998;BME280;8103;51.340;12.326;2023-02-10T06:40:27;102234.28;;;2.92;75.91
15998;BME280;8103;51.340;12.326;2023-02-10T06:42:55;102229.50;;;2.95;76.04
15998;BME280;8103;51.340;12.326;2023-02-10T06:45:22;102221.94;;;3.00;75.98
15998;BME280;8103;51.340;12.326;2023-02-10T06:47:49;102218.84;;;3.05;76.74
15998;BME280;8103;51.340;12.326;2023-02-10T06:50:16;102221.50;;;3.05;76.07
15998;BME280;8103;51.340;12.326;2023-02-10T06:52:45;102230.78;;;3.09;76.86
15998;BME280;8103;51.340;12.326;2023-02-10T06:55:12;102232.44;;;3.10;75.82
15998;BME280;8103;51.340;12.326;2023-02-10T06:57:39;102237.28;;;3.14;75.91
15998;BME280;8103;51.340;12.326;2023-02-10T07:00:11;102239.94;;;3.14;75.85
15998;BME280;8103;51.340;12.326;2023-02-10T07:02:38;102242.44;;;3.16;76.63
15998;BME280;8103;51.340;12.326;2023-02-10T07:05:07;102254.91;;;3.23;76.78
15998;BME280;8103;51.340;12.326;2023-02-10T07:07:35;102256.41;;;3.26;76.54
15998;BME280;8103;51.340;12.326;2023-02-10T07:10:03;102259.06;;;3.26;76.25
15998;BME280;8103;51.340;12.326;2023-02-10T07:12:30;102261.56;;;3.27;75.98
15998;BME280;8103;51.340;12.326;2023-02-10T07:14:56;102260.22;;;3.23;76.95
15998;BME280;8103;51.340;12.326;2023-02-10T07:17:23;102267.72;;;3.28;76.46
15998;BME280;8103;51.340;12.326;2023-02-10T07:19:50;102271.84;;;3.30;76.52
15998;BME280;8103;51.340;12.326;2023-02-10T07:22:17;102275.19;;;3.32;77.19
15998;BME280;8103;51.340;12.326;2023-02-10T07:24:44;102271.78;;;3.40;76.44
15998;BME280;8103;51.340;12.326;2023-02-10T07:27:10;102271.47;;;3.43;77.21
15998;BME280;8103;51.340;12.326;2023-02-10T07:29:37;102269.47;;;3.45;76.19
15998;BME280;8103;51.340;12.326;2023-02-10T07:32:04;102280.25;;;3.43;76.85
15998;BME280;8103;51.340;12.326;2023-02-10T07:34:31;102270.31;;;3.45;76.73
15998;BME280;8103;51.340;12.326;2023-02-10T07:37:00;102269.88;;;3.50;76.42
15998;BME280;8103;51.340;12.326;2023-02-10T07:39:27;102271.97;;;3.46;76.43
15998;BME280;8103;51.340;12.326;2023-02-10T07:41:54;102276.97;;;3.49;76.98
15998;BME280;8103;51.340;12.326;2023-02-10T07:44:21;102280.47;;;3.50;77.57
15998;BME280;8103;51.340;12.326;2023-02-10T07:46:51;102279.16;;;3.54;76.93
15998;BME280;8103;51.340;12.326;2023-02-10T07:49:18;102269.41;;;3.54;77.18
15998;BME280;8103;51.340;12.326;2023-02-10T07:51:45;102278.19;;;3.55;77.78
15998;BME280;8103;51.340;12.326;2023-02-10T07:54:12;102274.56;;;3.56;77.23
15998;BME280;8103;51.340;12.326;2023-02-10T07:56:39;102278.84;;;3.57;77.00
15998;BME280;8103;51.340;12.326;2023-02-10T07:59:06;102279.16;;;3.54;77.38
15998;BME280;8103;51.340;12.326;2023-02-10T08:01:34;102274.41;;;3.57;77.07
15998;BME280;8103;51.340;12.326;2023-02-10T08:04:04;102277.19;;;3.56;76.86
15998;BME280;8103;51.340;12.326;2023-02-10T08:06:31;102287.81;;;3.56;77.93
15998;BME280;8103;51.340;12.326;2023-02-10T08:08:58;102293.53;;;3.69;77.67
15998;BME280;8103;51.340;12.326;2023-02-10T08:11:25;102301.34;;;3.70;77.09
15998;BME280;8103;51.340;12.326;2023-02-10T08:13:51;102296.22;;;3.77;76.30
15998;BME280;8103;51.340;12.326;2023-02-10T08:16:18;102307.06;;;3.83;76.91
15998;BME280;8103;51.340;12.326;2023-02-10T08:18:45;102309.94;;;3.90;76.72
15998;BME280;8103;51.340;12.326;2023-02-10T08:21:12;102313.38;;;3.90;77.38
15998;BME280;8103;51.340;12.326;2023-02-10T08:23:39;102317.88;;;3.90;77.79
15998;BME280;8103;51.340;12.326;2023-02-10T08:26:11;102317.22;;;3.96;77.10
15998;BME280;8103;51.340;12.326;2023-02-10T08:28:40;102319.94;;;4.04;77.01
15998;BME280;8103;51.340;12.326;2023-02-10T08:31:08;102310.69;;;4.08;77.59
15998;BME280;8103;51.340;12.326;2023-02-10T08:33:38;102298.09;;;4.10;76.88
15998;BME280;8103;51.340;12.326;2023-02-10T08:36:16;102296.19;;;4.28;76.66
15998;BME280;8103;51.340;12.326;2023-02-10T08:38:45;102298.56;;;4.39;76.76
15998;BME280;8103;51.340;12.326;2023-02-10T08:41:12;102301.06;;;4.40;76.24
15998;BME280;8103;51.340;12.326;2023-02-10T08:43:40;102298.13;;;4.52;76.21
15998;BME280;8103;51.340;12.326;2023-02-10T08:46:07;102291.00;;;4.60;75.43
15998;BME280;8103;51.340;12.326;2023-02-10T08:48:34;102296.97;;;4.62;75.73
15998;BME280;8103;51.340;12.326;2023-02-10T08:55:07;102298.38;;;4.82;75.19
15998;BME280;8103;51.340;12.326;2023-02-10T08:57:35;102304.00;;;4.87;74.78
15998;BME280;8103;51.340;12.326;2023-02-10T09:00:05;102299.38;;;4.97;74.84
15998;BME280;8103;51.340;12.326;2023-02-10T09:02:33;102297.59;;;5.06;74.02
15998;BME280;8103;51.340;12.326;2023-02-10T09:05:00;102303.06;;;5.44;73.71
15998;BME280;8103;51.340;12.326;2023-02-10T09:07:36;102304.72;;;5.69;72.75
15998;BME280;8103;51.340;12.326;2023-02-10T09:10:04;102302.31;;;6.22;71.68
15998;BME280;8103;51.340;12.326;2023-02-10T09:12:31;102297.44;;;6.73;68.70
15998;BME280;8103;51.340;12.326;2023-02-10T09:14:58;102301.22;;;6.78;67.26
15998;BME280;8103;51.340;12.326;2023-02-10T09:17:25;102309.03;;;6.80;66.90
15998;BME280;8103;51.340;12.326;2023-02-10T09:19:52;102306.72;;;6.46;67.00
15998;BME280;8103;51.340;12.326;2023-02-10T09:22:19;102318.06;;;6.40;67.52
15998;BME280;8103;51.340;12.326;2023-02-10T09:24:45;102314.56;;;6.39;67.66
15998;BME280;8103;51.340;12.326;2023-02-10T09:27:15;102317.09;;;6.33;67.61
15998;BME280;8103;51.340;12.326;2023-02-10T09:29:43;102312.03;;;6.46;67.38
15998;BME280;8103;51.340;12.326;2023-02-10T09:32:11;102312.53;;;6.49;67.12
15998;BME280;8103;51.340;12.326;2023-02-10T09:34:38;102324.34;;;6.47;66.26
15998;BME280;8103;51.340;12.326;2023-02-10T09:37:07;102319.69;;;6.49;66.95
15998;BME280;8103;51.340;12.326;2023-02-10T09:39:33;102321.09;;;6.68;65.84
15998;BME280;8103;51.340;12.326;2023-02-10T09:42:26;102326.66;;;6.58;66.17
15998;BME280;8103;51.340;12.326;2023-02-10T09:45:24;102328.63;;;6.64;65.42
15998;BME280;8103;51.340;12.326;2023-02-10T09:48:00;102328.09;;;6.69;65.44
15998;BME280;8103;51.340;12.326;2023-02-10T09:51:08;102311.91;;;7.68;63.95
15998;BME280;8103;51.340;12.326;2023-02-10T09:53:37;102316.50;;;9.75;58.92
15998;BME280;8103;51.340;12.326;2023-02-10T09:56:11;102306.59;;;10.77;52.42
15998;BME280;8103;51.340;12.326;2023-02-10T09:58:49;102311.03;;;11.31;50.50
15998;BME280;8103;51.340;12.326;2023-02-10T10:01:39;102315.16;;;11.14;49.96
15998;BME280;8103;51.340;12.326;2023-02-10T10:04:20;102306.34;;;11.39;49.28
15998;BME280;8103;51.340;12.326;2023-02-10T10:06:52;102314.38;;;12.04;48.07
15998;BME280;8103;51.340;12.326;2023-02-10T10:09:43;102304.28;;;11.87;47.96
15998;BME280;8103;51.340;12.326;2023-02-10T10:12:18;102303.66;;;11.39;48.58
15998;BME280;8103;51.340;12.326;2023-02-10T10:14:45;102297.69;;;10.70;50.25
15998;BME280;8103;51.340;12.326;2023-02-10T10:20:34;102302.22;;;8.84;56.17
15998;BME280;8103;51.340;12.326;2023-02-10T10:26:47;102319.88;;;8.49;58.24
15998;BME280;8103;51.340;12.326;2023-02-10T10:32:16;102310.38;;;8.03;60.46
15998;BME280;8103;51.340;12.326;2023-02-10T10:34:53;102307.03;;;8.01;60.64
15998;BME280;8103;51.340;12.326;2023-02-10T10:37:24;102301.34;;;8.04;60.57
15998;BME280;8103;51.340;12.326;2023-02-10T10:40:05;102307.78;;;8.09;60.63
15998;BME280;8103;51.340;12.326;2023-02-10T10:42:46;102309.34;;;8.04;60.94
15998;BME280;8103;51.340;12.326;2023-02-10T10:45:28;102308.72;;;8.02;61.23
15998;BME280;8103;51.340;12.326;2023-02-10T10:48:06;102308.75;;;8.31;60.01
15998;BME280;8103;51.340;12.326;2023-02-10T10:50:35;102310.22;;;8.48;59.56
15998;BME280;8103;51.340;12.326;2023-02-10T10:53:16;102306.72;;;8.33;59.86
15998;BME280;8103;51.340;12.326;2023-02-10T10:55:51;102306.91;;;8.46;59.14
15998;BME280;8103;51.340;12.326;2023-02-10T10:58:33;102308.44;;;8.55;59.42
15998;BME280;8103;51.340;12.326;2023-02-10T11:01:02;102305.50;;;9.00;58.75
15998;BME280;8103;51.340;12.326;2023-02-10T11:03:30;102301.28;;;9.12;56.99
15998;BME280;8103;51.340;12.326;2023-02-10T11:06:06;102295.19;;;8.97;57.40
15998;BME280;8103;51.340;12.326;2023-02-10T11:08:53;102301.78;;;9.01;57.94
15998;BME280;8103;51.340;12.326;2023-02-10T11:11:38;102291.75;;;9.03;57.64
15998;BME280;8103;51.340;12.326;2023-02-10T11:14:16;102304.16;;;9.32;57.08
15998;BME280;8103;51.340;12.326;2023-02-10T11:16:49;102299.13;;;9.43;56.64
15998;BME280;8103;51.340;12.326;2023-02-10T11:21:47;102282.47;;;9.75;55.50
15998;BME280;8103;51.340;12.326;2023-02-10T11:24:29;102291.56;;;9.74;55.65
15998;BME280;8103;51.340;12.326;2023-02-10T11:27:12;102286.28;;;9.60;55.63
15998;BME280;8103;51.340;12.326;2023-02-10T11:29:57;102278.72;;;9.63;56.11
15998;BME280;8103;51.340;12.326;2023-02-10T11:32:27;102282.94;;;9.51;56.75
15998;BME280;8103;51.340;12.326;2023-02-10T11:35:02;102288.59;;;9.42;56.62
15998;BME280;8103;51.340;12.326;2023-02-10T11:37:34;102280.91;;;9.32;57.23
15998;BME280;8103;51.340;12.326;2023-02-10T11:40:26;102284.72;;;9.44;57.17
15998;BME280;8103;51.340;12.326;2023-02-10T11:42:57;102276.31;;;9.75;55.89
15998;BME280;8103;51.340;12.326;2023-02-10T11:45:31;102278.03;;;9.82;56.30
15998;BME280;8103;51.340;12.326;2023-02-10T11:48:20;102278.78;;;10.04;55.78
15998;BME280;8103;51.340;12.326;2023-02-10T11:51:00;102276.25;;;10.23;54.84
15998;BME280;8103;51.340;12.326;2023-02-10T11:53:30;102274.94;;;10.53;54.21
15998;BME280;8103;51.340;12.326;2023-02-10T12:06:05;102267.38;;;10.29;54.10
15998;BME280;8103;51.340;12.326;2023-02-10T12:09:36;102259.63;;;10.47;54.14
15998;BME280;8103;51.340;12.326;2023-02-10T12:12:44;102259.69;;;10.54;53.17
15998;BME280;8103;51.340;12.326;2023-02-10T12:15:33;102262.09;;;9.74;55.41
15998;BME280;8103;51.340;12.326;2023-02-10T12:21:20;102255.75;;;9.06;57.67
15998;BME280;8103;51.340;12.326;2023-02-10T12:24:04;102257.97;;;8.81;58.53
15998;BME280;8103;51.340;12.326;2023-02-10T12:26:43;102245.22;;;8.83;58.88
15998;BME280;8103;51.340;12.326;2023-02-10T12:29:45;102237.63;;;9.29;58.03
15998;BME280;8103;51.340;12.326;2023-02-10T12:38:36;102233.22;;;9.42;57.26
15998;BME280;8103;51.340;12.326;2023-02-10T12:50:03;102225.34;;;9.13;58.58
15998;BME280;8103;51.340;12.326;2023-02-10T12:52:41;102224.91;;;9.10;58.91
15998;BME280;8103;51.340;12.326;2023-02-10T12:55:14;102221.38;;;9.30;57.75
15998;BME280;8103;51.340;12.326;2023-02-10T12:58:06;102224.50;;;9.61;57.22
15998;BME280;8103;51.340;12.326;2023-02-10T13:00:43;102221.13;;;9.80;56.22
15998;BME280;8103;51.340;12.326;2023-02-10T13:03:30;102209.88;;;10.38;54.92
15998;BME280;8103;51.340;12.326;2023-02-10T13:06:39;102212.31;;;11.33;52.34
15998;BME280;8103;51.340;12.326;2023-02-10T13:10:06;102208.94;;;12.02;49.73
15998;BME280;8103;51.340;12.326;2023-02-10T13:12:42;102206.84;;;12.86;47.39
15998;BME280;8103;51.340;12.326;2023-02-10T13:15:25;102211.00;;;13.44;45.93
15998;BME280;8103;51.340;12.326;2023-02-10T13:17:53;102211.03;;;13.80;44.56
15998;BME280;8103;51.340;12.326;2023-02-10T13:20:34;102201.22;;;15.22;43.15
15998;BME280;8103;51.340;12.326;2023-02-10T13:30:50;102187.91;;;18.97;33.62
15998;BME280;8103;51.340;12.326;2023-02-10T13:36:36;102203.94;;;18.94;33.05
15998;BME280;8103;51.340;12.326;2023-02-10T13:39:16;102213.00;;;17.04;35.95
15998;BME280;8103;51.340;12.326;2023-02-10T13:41:50;102217.16;;;15.42;38.72
15998;BME280;8103;51.340;12.326;2023-02-10T13:44:31;102218.91;;;13.82;41.70
15998;BME280;8103;51.340;12.326;2023-02-10T13:51:07;102217.28;;;11.36;47.42
15998;BME280;8103;51.340;12.326;2023-02-10T14:00:52;102214.00;;;9.60;54.68
15998;BME280;8103;51.340;12.326;2023-02-10T14:06:07;102211.97;;;8.92;57.68
15998;BME280;8103;51.340;12.326;2023-02-10T14:08:41;102211.97;;;8.92;58.22
15998;BME280;8103;51.340;12.326;2023-02-10T14:11:40;102208.16;;;8.80;58.41
15998;BME280;8103;51.340;12.326;2023-02-10T14:14:28;102205.47;;;8.59;59.38
15998;BME280;8103;51.340;12.326;2023-02-10T14:19:44;102206.63;;;8.50;59.97
15998;BME280;8103;51.340;12.326;2023-02-10T14:22:34;102200.75;;;8.61;59.48
15998;BME280;8103;51.340;12.326;2023-02-10T14:25:33;102204.66;;;8.58;59.99
15998;BME280;8103;51.340;12.326;2023-02-10T14:28:01;102197.94;;;8.48;60.40
15998;BME280;8103;51.340;12.326;2023-02-10T14:30:50;102195.03;;;8.43;60.60
15998;BME280;8103;51.340;12.326;2023-02-10T14:33:30;102195.03;;;8.43;60.38
15998;BME280;8103;51.340;12.326;2023-02-10T14:36:03;102192.72;;;8.40;60.62
15998;BME280;8103;51.340;12.326;2023-02-10T14:38:33;102186.59;;;8.60;60.29
15998;BME280;8103;51.340;12.326;2023-02-10T14:41:03;102184.31;;;9.95;56.67
15998;BME280;8103;51.340;12.326;2023-02-10T14:43:46;102178.81;;;11.48;51.55
15998;BME280;8103;51.340;12.326;2023-02-10T14:46:28;102175.75;;;12.90;46.74
15998;BME280;8103;51.340;12.326;2023-02-10T14:49:03;102162.03;;;14.19;43.62
15998;BME280;8103;51.340;12.326;2023-02-10T14:51:40;102169.19;;;13.78;43.43
15998;BME280;8103;51.340;12.326;2023-02-10T14:54:22;102156.81;;;12.78;45.45
15998;BME280;8103;51.340;12.326;2023-02-10T14:57:02;102166.81;;;11.77;47.95
15998;BME280;8103;51.340;12.326;2023-02-10T15:03:35;102162.75;;;11.16;50.07